Terminal Aerodrome Forecast
Issued by NWS

Home | Current Version | Previous Version | Text Only | Print | Product List | Glossary On
Versions: 1 2 3 4 5 6 7 8 9 10 11 12 13 14 15 16 17 18 19 20 21 22 23 24 25 26
000
FTPA31 PHFO 011700
TAFLNY
TAF
PHNY 011727Z 0118/0218 06008KT P6SM FEW025
     FM012000 28007KT P6SM BKN025
     FM020300 04014KT P6SM SCT025 BKN045
     FM020700 03008KT P6SM FEW020 SCT040
      AMD NOT SKED=

USA.gov is the U.S. government's official web portal to all federal, state and local government web resources and services.